Time;durP1;ratioP1;P1;durP2;ratioP2;P2;SDS_P1;SDS_P2;PMS_P1;PMS_P2;Temp;Humidity;BMP_temperature;BMP_pressure;BME280_temperature;BME280_humidity;BME280_pressure;Samples;Min_cycle;Max_cycle;Signal;HPM_P1;HPM_P2
2022/03/24 00:02:26;;;;;;;47.80;16.60;;;;;;;9.56;53.69;101552.78;5038811;28;20374;-45
2022/03/24 00:04:53;;;;;;;52.75;17.40;;;;;;;9.51;53.99;101552.66;5038462;28;20056;-42
2022/03/24 00:07:19;;;;;;;54.17;17.88;;;;;;;9.49;53.68;101551.75;5040865;28;20072;-43
2022/03/24 00:09:46;;;;;;;48.13;17.02;;;;;;;9.46;53.78;101546.50;5040653;28;20049;-41
2022/03/24 00:12:13;;;;;;;52.97;17.88;;;;;;;9.43;54.55;101556.75;5034180;28;20479;-41
2022/03/24 00:14:40;;;;;;;51.55;20.20;;;;;;;9.41;53.90;101559.31;5026751;28;20049;-40
2022/03/24 00:17:07;;;;;;;54.90;19.40;;;;;;;9.41;54.75;101554.13;5028415;28;20077;-41
2022/03/24 00:19:34;;;;;;;58.20;18.83;;;;;;;9.42;55.06;101552.44;5021418;28;20046;-41
2022/03/24 00:22:01;;;;;;;56.90;18.92;;;;;;;9.43;55.38;101557.66;5027273;28;20041;-42
2022/03/24 00:24:28;;;;;;;57.00;18.50;;;;;;;9.41;55.23;101543.78;5023343;28;20099;-42
2022/03/24 00:26:55;;;;;;;51.13;18.55;;;;;;;9.42;55.74;101535.19;5028021;28;20073;-43
2022/03/24 00:29:22;;;;;;;62.72;19.65;;;;;;;9.40;55.67;101547.22;5026558;28;20519;-47
2022/03/24 00:31:49;;;;;;;52.33;20.42;;;;;;;9.39;55.77;101540.28;5027302;28;20044;-45
2022/03/24 00:34:16;;;;;;;59.83;19.92;;;;;;;9.38;56.27;101544.59;5025905;28;20099;-41
2022/03/24 00:36:43;;;;;;;61.28;20.67;;;;;;;9.36;55.95;101545.41;5027637;28;20460;-41
2022/03/24 00:39:09;;;;;;;60.55;21.15;;;;;;;9.34;55.30;101547.03;5024358;28;20057;-42
2022/03/24 00:41:36;;;;;;;53.55;18.30;;;;;;;9.32;55.83;101546.16;5027465;28;20107;-43
2022/03/24 00:44:03;;;;;;;54.38;18.33;;;;;;;9.31;55.93;101541.78;5021718;28;20061;-42
2022/03/24 00:46:31;;;;;;;48.95;17.92;;;;;;;9.28;56.01;101546.91;5022177;28;20096;-41
2022/03/24 00:48:58;;;;;;;61.92;19.05;;;;;;;9.22;55.74;101542.44;5022933;28;20069;-42
2022/03/24 00:51:25;;;;;;;57.15;20.27;;;;;;;9.18;55.49;101536.28;5027783;28;20532;-43
2022/03/24 00:53:53;;;;;;;62.22;22.13;;;;;;;9.16;56.37;101542.25;5027437;28;20777;-40
2022/03/24 00:56:20;;;;;;;60.20;20.70;;;;;;;9.13;56.26;101540.47;5027332;28;20049;-40
2022/03/24 00:58:46;;;;;;;57.38;19.50;;;;;;;9.08;56.99;101545.50;5028499;28;20505;-43
2022/03/24 01:01:13;;;;;;;55.35;19.50;;;;;;;9.06;56.61;101549.78;5029919;28;20604;-42
2022/03/24 01:03:41;;;;;;;57.38;18.60;;;;;;;9.02;56.08;101545.31;5031778;28;20041;-39
2022/03/24 01:06:10;;;;;;;60.17;20.90;;;;;;;8.98;56.41;101539.22;5034143;28;20058;-42
2022/03/24 01:08:37;;;;;;;57.65;19.15;;;;;;;8.95;56.73;101541.69;5029363;28;20091;-43
2022/03/24 01:11:05;;;;;;;55.90;18.48;;;;;;;8.91;55.70;101536.44;5036586;28;20455;-46
2022/03/24 01:13:34;;;;;;;61.10;20.05;;;;;;;8.85;55.71;101534.53;5034673;28;20067;-43
2022/03/24 01:16:03;;;;;;;57.40;18.60;;;;;;;8.80;56.98;101538.69;5031025;28;20571;-40
2022/03/24 01:18:34;;;;;;;57.28;20.08;;;;;;;8.77;57.01;101536.00;5030583;28;20053;-43
2022/03/24 01:21:04;;;;;;;58.38;20.15;;;;;;;8.72;56.97;101534.16;5041923;28;20053;-42
2022/03/24 01:23:32;;;;;;;56.38;18.45;;;;;;;8.68;57.02;101527.16;5037688;28;20049;-42
2022/03/24 01:26:00;;;;;;;60.05;19.73;;;;;;;8.63;56.23;101531.34;5028615;28;20045;-41
2022/03/24 01:28:28;;;;;;;55.55;19.10;;;;;;;8.57;56.38;101525.97;5030859;28;21001;-39
2022/03/24 01:30:55;;;;;;;58.25;19.63;;;;;;;8.51;56.30;101526.63;5040077;28;20053;-42
2022/03/24 01:33:22;;;;;;;55.33;19.20;;;;;;;8.45;56.73;101527.31;5031436;28;20041;-41
2022/03/24 01:35:50;;;;;;;56.53;19.90;;;;;;;8.40;57.58;101522.84;5028936;28;20045;-40
2022/03/24 01:38:17;;;;;;;60.95;17.98;;;;;;;8.35;56.46;101525.31;5026822;28;20782;-43
2022/03/24 01:40:44;;;;;;;53.92;19.10;;;;;;;8.30;57.00;101521.69;5037413;28;20049;-41
2022/03/24 01:43:11;;;;;;;60.10;19.13;;;;;;;8.26;56.86;101527.59;5029645;28;20051;-40
2022/03/24 01:45:38;;;;;;;55.47;18.13;;;;;;;8.22;57.07;101524.94;5028594;28;20050;-40
2022/03/24 01:48:09;;;;;;;50.63;17.75;;;;;;;8.15;56.69;101523.00;5023761;28;20581;-39
2022/03/24 01:50:37;;;;;;;60.33;18.33;;;;;;;8.12;58.18;101522.03;5034730;28;20053;-40
2022/03/24 01:53:05;;;;;;;56.38;20.15;;;;;;;8.06;56.72;101517.53;5039559;28;20102;-41
2022/03/24 01:55:34;;;;;;;61.33;20.00;;;;;;;8.01;57.21;101516.53;5035968;28;20489;-40
2022/03/24 01:58:02;;;;;;;67.53;22.05;;;;;;;7.98;58.36;101514.72;5031827;28;20707;-40
2022/03/24 02:00:29;;;;;;;56.20;19.50;;;;;;;7.93;57.17;101517.16;5027297;28;20099;-42
2022/03/24 02:02:58;;;;;;;58.05;20.63;;;;;;;7.90;57.78;101511.03;5029903;28;20164;-42
2022/03/24 02:05:25;;;;;;;70.57;20.67;;;;;;;7.86;57.58;101510.03;5029459;28;20040;-40
2022/03/24 02:07:52;;;;;;;63.42;22.15;;;;;;;7.82;59.16;101509.09;5028229;28;20720;-39
2022/03/24 02:10:19;;;;;;;72.55;22.40;;;;;;;7.81;59.00;101514.19;5030456;28;20420;-43
2022/03/24 02:12:48;;;;;;;71.78;24.52;;;;;;;7.79;58.50;101518.41;5035326;28;20045;-42
2022/03/24 02:15:18;;;;;;;72.13;23.75;;;;;;;7.79;59.63;101518.41;5028804;28;20042;-41
2022/03/24 02:17:45;;;;;;;75.03;23.92;;;;;;;7.77;58.66;101514.91;5022638;28;20120;-43
2022/03/24 02:20:12;;;;;;;70.38;24.33;;;;;;;7.75;59.79;101519.13;5029402;28;20404;-42
2022/03/24 02:22:38;;;;;;;78.32;25.48;;;;;;;7.74;58.62;101514.81;5036087;28;20044;-41
2022/03/24 02:25:09;;;;;;;77.63;25.40;;;;;;;7.74;58.87;101509.66;5031407;28;20103;-40
2022/03/24 02:27:38;;;;;;;74.72;25.42;;;;;;;7.72;59.30;101513.06;5030133;28;20041;-41
2022/03/24 02:30:06;;;;;;;79.18;26.48;;;;;;;7.68;60.48;101506.06;5032174;28;20044;-42
2022/03/24 02:32:33;;;;;;;80.93;24.63;;;;;;;7.69;60.66;101512.97;5034120;28;20049;-42
2022/03/24 02:35:00;;;;;;;86.03;25.80;;;;;;;7.68;59.09;101511.22;5024604;28;20558;-44
2022/03/24 02:37:28;;;;;;;78.00;24.25;;;;;;;7.67;59.92;101518.91;5027204;28;20041;-41
2022/03/24 02:39:56;;;;;;;78.93;25.35;;;;;;;7.65;60.13;101510.22;5026806;28;20045;-41
2022/03/24 02:42:25;;;;;;;76.78;25.00;;;;;;;7.62;60.24;101505.84;5035360;28;20037;-39
2022/03/24 02:44:55;;;;;;;73.78;24.85;;;;;;;7.60;60.07;101512.63;5026638;28;20562;-39
2022/03/24 02:47:23;;;;;;;80.03;25.65;;;;;;;7.56;60.15;101511.69;5033342;28;20053;-41
2022/03/24 02:49:53;;;;;;;80.50;25.42;;;;;;;7.52;61.73;101508.94;5029020;28;20057;-39
2022/03/24 02:52:20;;;;;;;76.22;25.25;;;;;;;7.47;60.86;101506.22;5035299;28;20094;-41
2022/03/24 02:54:46;;;;;;;85.65;24.75;;;;;;;7.43;60.65;101512.97;5034497;28;20516;-40
2022/03/24 02:57:13;;;;;;;75.22;24.60;;;;;;;7.40;61.61;101507.69;5030836;28;20365;-40
2022/03/24 02:59:40;;;;;;;75.55;24.52;;;;;;;7.37;61.54;101514.47;5031865;28;20080;-39
2022/03/24 03:02:12;;;;;;;76.97;24.17;;;;;;;7.32;59.99;101511.72;5028232;28;20057;-41
2022/03/24 03:04:57;;;;;;;81.03;25.92;;;;;;;7.26;61.57;101512.38;5026429;28;20084;-41
2022/03/24 03:07:23;;;;;;;72.15;25.38;;;;;;;7.22;61.37;101517.41;5034113;28;20667;-40
2022/03/24 03:09:50;;;;;;;72.53;24.80;;;;;;;7.18;61.00;101514.72;5033590;28;20183;-40
2022/03/24 03:12:17;;;;;;;74.57;23.50;;;;;;;7.15;61.21;101512.03;5026971;28;20057;-39
2022/03/24 03:14:46;;;;;;;78.60;26.35;;;;;;;7.11;61.46;101515.31;5028995;28;20092;-40
2022/03/24 03:17:15;;;;;;;73.65;22.13;;;;;;;7.06;60.86;101510.00;5030411;28;20095;-42
2022/03/24 03:19:45;;;;;;;71.22;24.40;;;;;;;7.02;61.58;101508.13;5025813;28;20057;-42
2022/03/24 03:22:13;;;;;;;69.97;23.48;;;;;;;6.98;60.79;101505.38;5032601;28;20052;-41
2022/03/24 03:24:40;;;;;;;71.90;22.08;;;;;;;6.93;61.42;101508.66;5034559;28;20678;-41
2022/03/24 03:27:07;;;;;;;67.80;23.08;;;;;;;6.88;62.12;101502.47;5036927;28;20469;-40
2022/03/24 03:29:34;;;;;;;70.05;21.55;;;;;;;6.85;61.21;101509.25;5033706;28;20049;-40
2022/03/24 03:32:02;;;;;;;75.82;22.90;;;;;;;6.80;61.12;101497.03;5025514;28;20076;-41
2022/03/24 03:34:29;;;;;;;72.47;22.48;;;;;;;6.78;62.05;101505.53;5026535;28;20080;-42
2022/03/24 03:36:58;;;;;;;66.95;22.95;;;;;;;6.74;61.45;101506.25;5023471;28;20075;-38
2022/03/24 03:39:26;;;;;;;72.35;23.40;;;;;;;6.71;61.08;101501.88;5030381;28;20409;-39
2022/03/24 03:41:54;;;;;;;68.18;23.25;;;;;;;6.66;62.02;101499.13;5029997;28;20099;-41
2022/03/24 03:44:21;;;;;;;74.45;22.60;;;;;;;6.63;60.85;101504.19;5036916;28;20053;-40
2022/03/24 03:46:48;;;;;;;66.22;21.73;;;;;;;6.58;60.53;101495.38;5030612;28;20103;-40
2022/03/24 03:49:14;;;;;;;67.50;21.90;;;;;;;6.55;60.64;101495.28;5028946;28;20053;-39
2022/03/24 03:51:41;;;;;;;72.10;22.88;;;;;;;6.52;60.77;101501.19;5038520;28;20053;-40
2022/03/24 03:54:08;;;;;;;73.40;24.08;;;;;;;6.51;61.42;101499.44;5038177;28;20045;-40
2022/03/24 03:56:36;;;;;;;80.78;23.10;;;;;;;6.50;62.53;101501.94;5039472;28;20500;-40
2022/03/24 03:59:04;;;;;;;77.72;23.00;;;;;;;6.48;61.63;101509.63;5018147;28;20053;-42
2022/03/24 04:01:31;;;;;;;76.25;25.00;;;;;;;6.45;61.56;101503.47;5031372;28;20532;-41
2022/03/24 04:03:58;;;;;;;69.28;22.20;;;;;;;6.43;61.88;101496.56;5036584;28;20052;-39
2022/03/24 04:06:25;;;;;;;72.57;24.25;;;;;;;6.43;62.82;101504.28;5031085;28;20057;-40
2022/03/24 04:08:52;;;;;;;84.32;25.15;;;;;;;6.42;62.93;101499.97;5036068;28;20052;-38
2022/03/24 04:11:19;;;;;;;82.65;25.20;;;;;;;6.40;62.90;101501.63;5030565;28;20049;-39
2022/03/24 04:13:46;;;;;;;81.13;26.15;;;;;;;6.40;62.98;101500.72;5027915;28;20038;-40
2022/03/24 04:16:13;;;;;;;74.25;24.38;;;;;;;6.39;62.02;101498.97;5034712;28;20064;-40
2022/03/24 04:18:43;;;;;;;77.82;26.13;;;;;;;6.39;63.05;101505.00;5033339;28;20056;-40
2022/03/24 04:21:11;;;;;;;76.75;24.48;;;;;;;6.36;63.20;101504.91;5031586;28;20046;-40
2022/03/24 04:23:40;;;;;;;81.05;26.27;;;;;;;6.34;62.94;101500.47;5030370;28;20037;-42
2022/03/24 04:26:07;;;;;;;75.50;25.08;;;;;;;6.30;63.05;101509.78;5030493;28;20061;-45
2022/03/24 04:28:34;;;;;;;74.60;24.08;;;;;;;6.27;62.35;101499.38;5029776;28;20049;-39
2022/03/24 04:31:01;;;;;;;83.63;25.73;;;;;;;6.27;62.20;101504.53;5039080;28;20072;-41
2022/03/24 04:33:28;;;;;;;78.47;25.55;;;;;;;6.23;63.12;101498.41;5040441;28;20636;-40
2022/03/24 04:35:54;;;;;;;78.88;24.48;;;;;;;6.23;63.80;101503.53;5039690;28;20053;-42
2022/03/24 04:38:21;;;;;;;86.43;26.10;;;;;;;6.24;63.56;101497.56;5033464;28;20099;-39
2022/03/24 04:40:48;;;;;;;80.60;24.98;;;;;;;6.23;63.24;101503.53;5035536;28;20072;-41
2022/03/24 04:43:15;;;;;;;81.13;26.45;;;;;;;6.22;63.86;101495.75;5036568;28;20448;-40
2022/03/24 04:45:46;;;;;;;84.50;27.45;;;;;;;6.22;63.95;101500.91;5029506;28;20795;-40
2022/03/24 04:48:13;;;;;;;84.78;24.67;;;;;;;6.23;64.02;101497.50;5029997;28;20989;-42
2022/03/24 04:50:39;;;;;;;82.68;25.80;;;;;;;6.20;64.13;101506.00;5027371;28;20042;-40
2022/03/24 04:53:13;;;;;;;85.78;27.77;;;;;;;6.19;63.99;101505.94;5033704;28;20043;-38
2022/03/24 04:55:43;;;;;;;84.78;26.40;;;;;;;6.17;64.15;101504.19;5034175;28;20724;-39
2022/03/24 04:58:11;;;;;;;88.07;26.23;;;;;;;6.16;63.82;101498.97;5029060;28;20485;-40
2022/03/24 05:00:38;;;;;;;85.00;26.35;;;;;;;6.16;64.31;101502.44;5033246;28;20052;-41
2022/03/24 05:03:05;;;;;;;79.07;26.98;;;;;;;6.16;63.26;101498.97;5035284;28;20461;-43
2022/03/24 05:05:31;;;;;;;82.40;26.33;;;;;;;6.13;63.47;101502.31;5032541;28;20083;-40
2022/03/24 05:07:58;;;;;;;86.00;26.35;;;;;;;6.14;63.56;101504.06;5028598;28;20400;-39
2022/03/24 05:10:25;;;;;;;86.30;25.58;;;;;;;6.14;63.71;101504.06;5034186;28;20052;-40
2022/03/24 05:12:51;;;;;;;89.30;27.30;;;;;;;6.12;63.57;101500.53;5025460;28;20049;-40
2022/03/24 05:15:18;;;;;;;87.03;27.55;;;;;;;6.11;63.81;101498.78;5030369;28;20049;-41
2022/03/24 05:17:45;;;;;;;88.32;27.00;;;;;;;6.10;64.88;101501.28;5038271;28;20045;-39
2022/03/24 05:20:12;;;;;;;80.45;25.33;;;;;;;6.08;64.51;101498.66;5031401;28;20064;-42
2022/03/24 05:22:38;;;;;;;85.43;27.00;;;;;;;6.07;64.64;101503.75;5032399;28;20102;-41
2022/03/24 05:25:06;;;;;;;90.78;28.23;;;;;;;6.05;65.06;101501.13;5026841;28;20045;-41
2022/03/24 05:27:32;;;;;;;95.07;28.10;;;;;;;6.03;64.03;101500.16;5028239;28;20102;-40
2022/03/24 05:29:59;;;;;;;92.15;27.98;;;;;;;6.02;64.82;101503.56;5034366;28;20142;-39
2022/03/24 05:32:27;;;;;;;86.95;27.38;;;;;;;5.99;64.64;101500.84;5030258;28;20435;-39
2022/03/24 05:34:54;;;;;;;88.15;27.52;;;;;;;5.95;64.31;101502.44;5028209;28;20053;-41
2022/03/24 05:37:21;;;;;;;88.03;28.80;;;;;;;5.90;64.66;101509.97;5028300;28;20735;-39
2022/03/24 05:39:48;;;;;;;86.03;26.45;;;;;;;5.87;63.99;101504.69;5029238;28;20619;-40
2022/03/24 05:42:15;;;;;;;75.68;25.23;;;;;;;5.84;64.16;101507.13;5031907;28;20049;-39
2022/03/24 05:44:41;;;;;;;82.05;27.13;;;;;;;5.79;63.89;101503.50;5037222;28;20045;-41
2022/03/24 05:47:09;;;;;;;82.60;25.55;;;;;;;5.77;63.99;101502.53;5031788;28;20107;-40
2022/03/24 05:49:35;;;;;;;85.70;26.73;;;;;;;5.74;64.52;101508.44;5031995;28;20521;-40
2022/03/24 05:52:03;;;;;;;79.82;26.30;;;;;;;5.74;64.28;101502.44;5037311;28;20056;-41
2022/03/24 05:54:30;;;;;;;87.70;25.60;;;;;;;5.71;64.73;101517.75;5039220;28;20048;-40
2022/03/24 05:56:56;;;;;;;81.63;26.33;;;;;;;5.70;63.99;101510.81;5010000;28;20547;-39
2022/03/24 05:59:23;;;;;;;82.53;25.95;;;;;;;5.69;65.04;101511.66;5011497;28;20057;-39
2022/03/24 06:01:49;;;;;;;87.78;27.05;;;;;;;5.66;64.06;101513.28;5010043;28;20057;-40
2022/03/24 06:04:18;;;;;;;80.50;24.63;;;;;;;5.63;64.20;101510.59;5003682;28;20497;-38
2022/03/24 06:06:45;;;;;;;82.43;26.25;;;;;;;5.60;63.85;101514.72;5009027;28;20176;-40
2022/03/24 06:09:12;;;;;;;73.90;23.75;;;;;;;5.56;64.32;101511.16;5003638;28;20390;-39
2022/03/24 06:11:39;;;;;;;71.75;24.90;;;;;;;5.55;63.93;101511.97;5009435;28;20108;-41
2022/03/24 06:14:08;;;;;;;72.15;23.42;;;;;;;5.52;64.41;101516.97;5006696;28;20050;-40
2022/03/24 06:16:35;;;;;;;77.43;23.55;;;;;;;5.50;64.89;101518.59;5004670;28;20141;-41
2022/03/24 06:19:02;;;;;;;81.63;26.98;;;;;;;5.48;64.33;101521.13;5005405;28;20064;-39
2022/03/24 06:21:29;;;;;;;79.97;25.33;;;;;;;5.49;63.87;101527.13;5009247;28;21554;-41
2022/03/24 06:23:55;;;;;;;75.63;25.25;;;;;;;5.50;64.50;101518.59;5030591;28;20107;-39
2022/03/24 06:26:23;;;;;;;83.15;24.80;;;;;;;5.50;64.86;101524.63;5012335;28;20061;-40
2022/03/24 06:28:52;;;;;;;78.80;25.85;;;;;;;5.54;64.08;101525.59;5006491;28;20053;-40
2022/03/24 06:31:20;;;;;;;79.22;23.80;;;;;;;5.54;63.86;101525.59;5004911;28;20429;-42
2022/03/24 06:33:48;;;;;;;75.22;24.10;;;;;;;5.57;64.88;101525.75;5002698;28;20068;-41
2022/03/24 06:36:15;;;;;;;77.07;22.35;;;;;;;5.61;64.73;101529.34;5008414;28;20049;-41
2022/03/24 06:38:42;;;;;;;82.78;27.33;;;;;;;5.62;63.82;101529.41;5014149;28;20081;-41
2022/03/24 06:41:09;;;;;;;80.13;25.58;;;;;;;5.64;64.67;101522.63;5003288;28;20055;-41
2022/03/24 06:43:36;;;;;;;75.78;24.70;;;;;;;5.66;63.93;101528.72;5004761;28;20049;-40
2022/03/24 06:46:06;;;;;;;86.53;25.60;;;;;;;5.71;63.89;101530.59;5007408;28;20049;-41
2022/03/24 06:48:33;;;;;;;77.85;25.50;;;;;;;5.76;63.82;101539.38;5005425;28;20456;-43
2022/03/24 06:51:00;;;;;;;71.80;24.40;;;;;;;5.82;64.09;101537.06;5005326;28;22201;-42
2022/03/24 06:53:27;;;;;;;80.90;25.25;;;;;;;5.89;64.30;101536.50;5009976;28;20061;-42
2022/03/24 06:55:53;;;;;;;80.47;26.55;;;;;;;5.96;64.95;101535.03;5007070;28;20056;-41
2022/03/24 06:58:22;;;;;;;79.38;25.92;;;;;;;6.05;64.83;101539.72;5001531;28;20061;-43
2022/03/24 07:00:49;;;;;;;74.97;24.25;;;;;;;6.13;64.76;101534.88;5006026;28;20053;-43
2022/03/24 07:03:16;;;;;;;78.50;25.75;;;;;;;6.24;63.84;101530.13;5000807;28;20057;-42
2022/03/24 07:05:42;;;;;;;77.57;26.73;;;;;;;6.34;63.70;101541.66;5002905;28;20117;-41
2022/03/24 07:08:11;;;;;;;77.47;26.05;;;;;;;6.44;64.80;101533.47;5009039;28;20053;-43
2022/03/24 07:10:44;;;;;;;79.15;26.25;;;;;;;6.56;64.18;101543.38;5014811;28;20493;-41
2022/03/24 07:13:11;;;;;;;82.60;25.52;;;;;;;6.67;63.68;101539.53;5005468;28;20061;-40
2022/03/24 07:15:37;;;;;;;86.00;26.92;;;;;;;6.79;63.40;101538.22;5002375;28;20567;-41
2022/03/24 07:18:04;;;;;;;85.80;28.20;;;;;;;6.92;63.65;101536.94;5004198;28;20058;-42
2022/03/24 07:20:34;;;;;;;85.38;26.92;;;;;;;7.05;63.12;101538.28;5003353;28;20057;-40
2022/03/24 07:23:03;;;;;;;97.30;28.30;;;;;;;7.21;64.34;101539.69;5011135;28;20103;-40
2022/03/24 07:25:31;;;;;;;82.93;28.40;;;;;;;7.71;63.90;101537.09;5023291;28;20041;-41
2022/03/24 07:27:59;;;;;;;100.85;31.42;;;;;;;8.55;64.48;101537.97;5037358;28;20151;-41
2022/03/24 07:30:26;;;;;;;100.22;31.95;;;;;;;9.42;63.90;101545.53;5035627;28;20098;-43
2022/03/24 07:32:55;;;;;;;87.43;30.30;;;;;;;10.30;62.90;101543.31;5037856;28;20043;-41
2022/03/24 07:35:24;;;;;;;74.20;26.40;;;;;;;11.09;61.41;101538.06;5035996;28;20057;-40
2022/03/24 07:37:51;;;;;;;72.00;26.10;;;;;;;11.89;60.74;101542.91;5035952;28;20045;-43
2022/03/24 07:40:18;;;;;;;74.72;25.92;;;;;;;12.62;58.83;101540.47;5036653;28;20443;-40
2022/03/24 07:42:45;;;;;;;72.43;26.92;;;;;;;13.29;58.80;101552.53;5027010;28;20057;-41
2022/03/24 07:45:12;;;;;;;58.63;23.05;;;;;;;13.94;57.41;101553.97;5034859;28;20057;-41
2022/03/24 07:48:05;;;;;;;59.80;23.92;;;;;;;14.52;56.30;101544.75;5033927;28;20096;-40
2022/03/24 14:02:23;;;;;;;21.23;8.10;;;;;;;20.33;25.44;101490.75;5028042;27;20406;-51
2022/03/24 14:05:09;;;;;;;29.77;9.85;;;;;;;20.25;25.47;101486.50;5006363;28;20103;-49
2022/03/24 14:07:57;;;;;;;18.85;6.97;;;;;;;20.09;26.00;101485.09;5013022;28;20153;-50
2022/03/24 14:10:44;;;;;;;21.35;7.88;;;;;;;20.00;25.38;101480.88;5014415;28;21025;-47
2022/03/24 14:13:13;;;;;;;21.33;7.50;;;;;;;19.99;26.32;101490.50;4994789;28;20057;-49
2022/03/24 14:15:41;;;;;;;20.05;8.00;;;;;;;20.00;26.39;101489.59;5003566;28;20046;-49
2022/03/24 14:18:12;;;;;;;22.80;8.27;;;;;;;20.02;26.41;101489.56;5006105;28;20068;-49
2022/03/24 14:20:42;;;;;;;24.17;7.55;;;;;;;20.00;26.59;101484.34;5002968;28;20108;-48
2022/03/24 14:23:08;;;;;;;20.50;7.75;;;;;;;19.84;26.37;101480.25;5005171;28;20066;-47
2022/03/24 14:25:35;;;;;;;20.08;7.30;;;;;;;19.77;26.39;101475.13;5007074;28;20061;-49
2022/03/24 14:28:01;;;;;;;24.77;8.85;;;;;;;19.66;25.89;101477.06;5011907;28;20521;-50
2022/03/24 14:30:29;;;;;;;21.02;8.65;;;;;;;19.60;26.38;101471.91;5008921;28;20597;-52
2022/03/24 14:32:56;;;;;;;24.20;8.38;;;;;;;19.49;26.44;101475.59;5002550;28;20050;-52
2022/03/24 14:35:27;;;;;;;25.45;8.07;;;;;;;19.46;27.38;101470.41;5008528;28;20046;-50
2022/03/24 14:38:08;;;;;;;19.55;7.50;;;;;;;19.46;27.16;101467.78;5001949;28;20042;-50
2022/03/24 14:43:16;;;;;;;22.10;7.82;;;;;;;19.53;26.42;101465.91;5043930;27;20410;-49
2022/03/24 14:46:00;;;;;;;20.23;7.82;;;;;;;19.46;26.51;101464.28;5023390;28;20060;-50
2022/03/24 14:48:26;;;;;;;24.50;8.48;;;;;;;19.42;26.90;101463.44;5028360;28;20118;-47
2022/03/24 14:50:53;;;;;;;21.00;8.57;;;;;;;19.35;26.96;101462.69;5025861;28;20052;-51
2022/03/24 14:53:22;;;;;;;22.30;8.50;;;;;;;19.31;26.68;101465.38;5022377;28;20092;-51
2022/03/24 14:55:48;;;;;;;21.83;8.68;;;;;;;19.26;27.21;101458.47;5024055;28;20052;-50
2022/03/24 14:58:15;;;;;;;23.30;7.80;;;;;;;19.22;26.28;101456.78;5020741;28;20566;-52
2022/03/24 15:00:42;;;;;;;19.90;6.63;;;;;;;19.14;26.95;101451.66;5019055;28;20062;-50
2022/03/24 15:03:09;;;;;;;20.02;7.10;;;;;;;19.04;26.23;101450.03;5021087;28;20050;-48
2022/03/24 15:05:37;;;;;;;23.10;8.52;;;;;;;18.96;26.46;101450.16;5017347;28;20050;-50
2022/03/24 15:08:05;;;;;;;25.73;8.15;;;;;;;18.92;27.15;101447.59;5017498;28;20053;-49
2022/03/24 15:10:32;;;;;;;20.95;8.20;;;;;;;18.91;26.98;101446.72;5021147;28;20046;-49
2022/03/24 15:12:59;;;;;;;22.60;8.98;;;;;;;18.83;27.23;101444.25;5023987;28;20111;-53
2022/03/24 15:18:13;;;;;;;22.02;7.72;;;;;;;18.79;26.65;101452.16;5022918;28;20140;-49
2022/03/24 15:20:40;;;;;;;22.63;8.02;;;;;;;18.77;26.67;101443.47;5020093;28;20803;-46
2022/03/24 15:23:07;;;;;;;19.30;7.97;;;;;;;18.74;26.84;101447.84;5019112;28;20058;-49
2022/03/24 15:25:34;;;;;;;22.98;7.53;;;;;;;18.73;27.15;101443.50;5016718;28;20050;-49
2022/03/24 15:28:00;;;;;;;23.92;8.00;;;;;;;18.65;27.42;101445.38;5021792;28;20484;-47
2022/03/24 15:30:27;;;;;;;21.70;8.00;;;;;;;18.60;27.16;101440.19;5019984;28;20104;-48
2022/03/24 15:32:55;;;;;;;23.05;8.70;;;;;;;18.56;28.07;101440.25;5020696;28;20046;-49
2022/03/24 15:35:22;;;;;;;25.60;8.68;;;;;;;18.57;27.45;101441.97;5017764;28;20054;-50
2022/03/24 15:37:49;;;;;;;21.05;7.82;;;;;;;18.51;27.50;101445.56;5013039;28;20049;-51
2022/03/24 15:40:15;;;;;;;22.25;8.60;;;;;;;18.48;27.37;101438.59;5017668;28;20127;-48
2022/03/24 15:42:42;;;;;;;21.38;7.90;;;;;;;18.45;27.45;101437.78;5017640;28;20064;-50
2022/03/24 15:45:15;;;;;;;22.73;9.20;;;;;;;18.42;27.98;101443.06;5018766;28;20602;-47
2022/03/24 15:47:43;;;;;;;21.70;7.93;;;;;;;18.38;28.17;101442.25;5013629;28;20057;-50
2022/03/24 15:50:10;;;;;;;21.65;7.90;;;;;;;18.34;28.09;101451.03;5015117;28;20050;-51
2022/03/24 15:52:39;;;;;;;23.77;8.18;;;;;;;18.33;28.21;101444.91;5008355;28;20117;-50
2022/03/24 15:55:07;;;;;;;24.25;8.73;;;;;;;18.33;28.44;101438.78;5000941;28;20132;-50
2022/03/24 15:57:34;;;;;;;22.02;8.82;;;;;;;18.30;28.48;101439.72;4999680;28;20050;-48
2022/03/24 16:00:00;;;;;;;20.05;7.53;;;;;;;18.28;28.77;101445.88;5001204;28;20525;-49
2022/03/24 16:02:27;;;;;;;24.48;9.18;;;;;;;18.23;28.34;101449.41;4997125;28;20042;-48
2022/03/24 16:04:54;;;;;;;25.55;7.80;;;;;;;18.20;28.46;101444.19;5000570;28;20081;-49
2022/03/24 16:07:21;;;;;;;24.25;8.70;;;;;;;18.19;28.49;101441.59;5000163;28;20049;-50
2022/03/24 16:09:47;;;;;;;25.42;8.45;;;;;;;18.17;28.98;101444.22;4997734;28;20042;-51
2022/03/24 16:12:14;;;;;;;28.35;9.15;;;;;;;18.15;28.47;101439.91;4999182;28;20038;-45
2022/03/24 16:14:41;;;;;;;28.67;9.32;;;;;;;18.09;28.58;101440.84;5002156;28;20060;-56
2022/03/24 16:17:07;;;;;;;23.65;9.05;;;;;;;18.04;29.02;101448.72;5005916;28;20050;-51
2022/03/24 16:19:35;;;;;;;25.33;9.38;;;;;;;17.99;28.57;101448.78;4996385;28;20050;-50
2022/03/24 16:22:01;;;;;;;23.10;7.70;;;;;;;17.96;28.38;101446.19;4999363;28;20058;-47
2022/03/24 16:24:29;;;;;;;22.73;8.40;;;;;;;17.91;28.66;101447.13;4997181;28;20603;-50
2022/03/24 16:26:56;;;;;;;24.55;8.48;;;;;;;17.83;28.98;101447.19;4997856;28;20435;-47
2022/03/24 16:29:23;;;;;;;21.85;8.40;;;;;;;17.78;29.29;101451.63;5002235;28;20466;-49
2022/03/24 16:31:49;;;;;;;21.73;7.90;;;;;;;17.71;29.02;101454.34;4997449;28;20049;-46
2022/03/24 16:34:16;;;;;;;25.63;8.63;;;;;;;17.69;29.40;101444.72;5000867;28;20065;-46
2022/03/24 16:36:43;;;;;;;26.08;8.15;;;;;;;17.64;29.18;101452.66;4998234;28;20054;-46
2022/03/24 16:39:10;;;;;;;22.88;8.68;;;;;;;17.59;29.71;101454.44;4994623;28;20063;-48
2022/03/24 16:41:37;;;;;;;26.02;9.60;;;;;;;17.52;29.88;101450.13;4999865;28;20989;-45
2022/03/24 16:44:04;;;;;;;22.95;8.18;;;;;;;17.47;29.19;101443.19;4995101;28;20054;-48
2022/03/24 16:46:30;;;;;;;21.27;8.50;;;;;;;17.39;29.51;101445.00;4998766;28;20054;-44
2022/03/24 16:48:57;;;;;;;23.80;8.60;;;;;;;17.37;30.05;101448.53;5001015;28;20136;-41
2022/03/24 16:51:24;;;;;;;24.50;8.98;;;;;;;17.28;29.76;101446.84;4996442;28;20054;-42
2022/03/24 16:53:51;;;;;;;24.58;9.00;;;;;;;17.20;30.34;101444.31;4998237;28;20536;-46
2022/03/24 16:56:17;;;;;;;23.85;8.57;;;;;;;17.14;30.29;101445.22;4993387;28;20065;-44
2022/03/24 16:58:44;;;;;;;20.83;7.80;;;;;;;17.08;30.85;101455.75;4996322;28;20108;-42
2022/03/24 17:01:10;;;;;;;23.55;9.07;;;;;;;17.04;30.55;101461.84;4997368;28;20054;-46
2022/03/24 17:03:37;;;;;;;19.27;7.88;;;;;;;16.98;30.51;101459.28;5002006;28;20510;-45
2022/03/24 17:06:05;;;;;;;25.33;9.38;;;;;;;16.92;31.23;101454.97;4997902;28;20105;-42
2022/03/24 17:08:32;;;;;;;26.73;9.05;;;;;;;16.88;30.83;101458.47;4982120;28;20058;-47
2022/03/24 17:11:00;;;;;;;26.92;9.65;;;;;;;16.80;31.17;101466.38;5002678;28;20064;-44
2022/03/24 17:13:27;;;;;;;26.25;9.88;;;;;;;16.78;31.23;101465.50;5007836;28;20654;-42
2022/03/24 17:15:55;;;;;;;24.52;8.82;;;;;;;16.72;31.08;101470.78;5001492;28;20073;-42
2022/03/24 17:18:22;;;;;;;20.08;8.02;;;;;;;16.65;31.32;101467.34;5001699;28;20097;-42
2022/03/24 17:20:49;;;;;;;24.17;8.60;;;;;;;16.58;31.78;101469.97;5002427;28;20050;-44
2022/03/24 17:23:15;;;;;;;25.88;8.65;;;;;;;16.52;32.23;101471.75;5002755;28;20088;-46
2022/03/24 17:25:42;;;;;;;24.88;8.88;;;;;;;16.45;32.25;101478.75;5004442;28;20053;-45
2022/03/24 17:28:10;;;;;;;24.17;9.35;;;;;;;16.37;32.45;101477.91;5004066;28;20103;-46
2022/03/24 17:30:37;;;;;;;21.00;8.40;;;;;;;16.31;32.51;101486.63;4999198;28;20107;-44
2022/03/24 17:33:04;;;;;;;22.33;8.63;;;;;;;16.26;32.69;101480.56;4994565;28;20042;-43
2022/03/24 17:35:32;;;;;;;22.63;7.80;;;;;;;16.19;32.63;101480.56;4998579;28;20104;-42
2022/03/24 17:37:58;;;;;;;22.73;9.05;;;;;;;16.12;33.07;101486.72;4998993;28;20054;-43